Latest Weather Observations for Bendigo

IDV60801

Issued at 3:05 pm EDT Monday 20 October 2014 (issued every 30 minutes, with the page automatically refreshed every 10 minutes)

About weather observations | Map of weather stations | Latest weather observations for VIC | Other Formats
Station Details ID: 081123 Name: BENDIGO AIRPORT Lat: -36.74 Lon: 144.33 Height: 208.0 m
Data from the previous 72 hours. | See also: Recent months at Bendigo
Date/Time
EDT
Temp
°C
App
Temp
°C
Dew
Point
Rel
Hum
%
Delta-T
°C
Wind Press
QNH
hPa
Press
MSL
hPa
Rain
since 9 am
mm
Dir
 
Spd
km/h
Gust
km/h
Spd
kts
Gust
kts
20/03:00pm 22.6 17.5 1.0 24 10.0 SE 17 26 9 14 1024.8 1024.8 0.0
20/02:30pm 22.1 17.1 1.2 25 9.7 SSE 17 24 9 13 1025.2 1025.2 0.0
20/02:00pm 21.8 16.9 2.0 27 9.3 SE 17 26 9 14 1025.5 1025.5 0.0
20/01:30pm 21.0 16.4 1.3 27 9.1 ESE 15 30 8 16 1025.9 1025.9 0.0
20/01:00pm 20.5 14.6 1.9 29 8.6 S 22 32 12 17 1026.2 1026.2 0.0
20/12:30pm 20.2 14.7 1.6 29 8.6 SSE 20 30 11 16 1026.5 1026.5 0.0
20/12:00pm 18.1 12.8 2.0 34 7.3 SSE 19 28 10 15 1027.0 1026.9 0.0
20/11:30am 16.9 11.0 1.8 36 6.8 SE 22 30 12 16 1027.4 1027.3 0.0
20/11:00am 16.4 10.6 2.4 39 6.3 SSE 22 30 12 16 1027.6 1027.5 0.0
20/10:30am 15.0 9.3 2.9 44 5.5 S 22 32 12 17 1027.5 1027.4 0.0
20/10:00am 14.1 8.0 2.7 46 5.1 SSE 24 32 13 17 1027.6 1027.5 0.0
20/09:30am 13.0 7.0 3.4 52 4.3 SSE 24 33 13 18 1027.3 1027.2 0.0
20/09:00am 12.0 6.1 3.8 57 3.7 SSE 24 33 13 18 1027.2 1027.1 0.0
20/08:30am 11.7 6.7 4.7 62 3.2 SSE 20 32 11 17 1027.1 1027.0 0.0
20/08:00am 10.6 5.2 4.7 67 2.7 SE 22 35 12 19 1026.5 1026.5 0.0
20/07:30am 10.2 6.0 5.6 73 2.1 SE 17 24 9 13 1026.3 1026.3 0.0
20/07:00am 9.5 5.7 5.9 78 1.7 SE 15 20 8 11 1025.9 1025.9 0.0
20/06:30am 9.2 5.8 6.1 81 1.4 SSE 13 19 7 10 1025.7 1025.7 0.0
20/06:00am 9.4 6.1 6.5 82 1.4 SSE 13 20 7 11 1025.3 1025.3 0.0
20/05:30am 9.7 6.1 6.8 82 1.4 SE 15 22 8 12 1025.1 1025.1 0.0
20/05:00am 10.0 6.9 7.1 82 1.4 SE 13 20 7 11 1024.9 1024.9 0.0
20/04:30am 10.1 6.2 7.0 81 1.5 SSE 17 22 9 12 1024.9 1024.9 0.0
20/04:00am 10.3 6.0 7.0 80 1.6 SSE 19 26 10 14 1024.8 1024.8 0.0
20/03:30am 10.8 6.4 7.5 80 1.6 SSE 20 33 11 18 1024.9 1024.9 0.0
20/03:00am 11.3 7.2 8.0 80 1.6 SSE 19 30 10 16 1024.8 1024.8 0.0
20/02:30am 11.9 6.9 8.2 78 1.8 SSE 24 39 13 21 1024.9 1024.9 0.0
20/02:00am 12.1 8.6 8.8 80 1.7 S 17 24 9 13 1024.6 1024.6 0.0
20/01:30am 12.4 8.9 8.9 79 1.8 SSE 17 24 9 13 1025.0 1025.0 0.0
20/01:00am 12.4 8.6 8.9 79 1.8 SSE 19 26 10 14 1024.8 1024.8 0.0
20/12:30am 12.3 8.3 9.0 80 1.7 S 20 30 11 16 1024.9 1024.9 0.0
20/12:00am 12.8 9.5 9.4 80 1.7 S 17 22 9 12 1024.9 1024.9 0.0
 
Date/Time
EDT
Temp
°C
App
Temp
°C
Dew
Point
Rel
Hum
%
Delta-T
°C
Wind Press
QNH
hPa
Press
MSL
hPa
Rain
since 9 am
mm
Dir
 
Spd
km/h
Gust
km/h
Spd
kts
Gust
kts
19/11:30pm 13.4 10.6 10.0 80 1.8 S 15 26 8 14 1024.7 1024.7 0.0
19/11:00pm 14.0 10.9 10.2 78 2.0 SE 17 24 9 13 1024.4 1024.4 0.0
19/10:30pm 14.4 9.2 10.2 76 2.2 S 28 39 15 21 1024.4 1024.4 0.0
19/10:00pm 14.8 10.8 10.6 76 2.2 SSE 22 37 12 20 1024.3 1024.3 0.0
19/09:30pm 15.8 11.2 11.2 74 2.5 SSE 26 32 14 17 1024.2 1024.2 0.0
19/09:00pm 17.0 11.8 11.5 70 3.0 SSE 30 43 16 23 1023.3 1023.2 0.0
19/08:30pm 19.8 16.2 11.8 60 4.5 SE 22 33 12 18 1022.1 1022.0 0.0
19/08:00pm 23.9 20.3 8.3 37 8.4 S 17 24 9 13 1021.0 1021.0 0.0
19/07:30pm 26.0 21.4 6.6 29 10.2 SSW 20 33 11 18 1020.0 1020.0 0.0
19/07:00pm 27.8 23.3 4.2 22 12.0 SSW 17 30 9 16 1019.5 1019.4 0.0
19/06:30pm 30.7 25.1 -3.1 11 15.5 NW 17 28 9 15 1018.8 1018.7 0.0
19/06:00pm 31.8 25.6 -3.5 10 16.2 NW 20 32 11 17 1018.7 1018.6 0.0
19/05:30pm 32.0 25.2 -2.1 11 16.1 WNW 24 37 13 20 1018.6 1018.5 0.0
19/05:00pm 32.0 26.1 -2.1 11 16.1 WNW 19 32 10 17 1018.7 1018.6 0.0
19/04:30pm 32.0 25.5 -2.1 11 16.1 NW 22 35 12 19 1018.8 1018.7 0.0
19/04:00pm 32.0 25.5 -2.1 11 16.0 NW 22 32 12 17 1019.1 1019.0 0.0
19/03:30pm 31.7 24.3 -3.6 10 16.2 NNW 26 46 14 25 1019.3 1019.2 0.0
19/03:00pm 31.3 24.0 -2.6 11 15.7 NW 26 44 14 24 1019.8 1019.8 0.0
19/02:56pm 31.4 23.7 -2.6 11 15.8 NW 28 44 15 24 1019.9 1019.9 0.0
19/02:30pm 29.7 23.6 -2.7 12 14.9 NNW 20 26 11 14 1020.3 1020.3 0.0
19/02:00pm 29.1 22.9 -0.1 15 13.9 NNW 22 32 12 17 1020.9 1020.9 0.0
19/01:30pm 28.8 23.5 2.1 18 13.2 NNW 19 30 10 16 1021.4 1021.4 0.0
19/01:00pm 28.2 22.4 2.4 19 12.8 N 22 32 12 17 1021.7 1021.7 0.0
19/12:30pm 26.1 20.5 1.4 20 11.9 N 20 30 11 16 1022.2 1022.1 0.0
19/12:00pm 24.7 20.6 4.5 27 10.1 N 15 24 8 13 1022.7 1022.6 0.0
19/11:30am 23.5 19.8 6.3 33 8.9 N 15 22 8 12 1023.2 1023.1 0.0
19/11:00am 21.2 17.5 4.3 33 8.2 N 13 19 7 10 1023.7 1023.6 0.0
19/10:30am 20.3 18.8 6.6 41 7.0 NNE 4 9 2 5 1024.1 1024.1 0.0
19/10:00am 19.0 16.4 6.1 43 6.4 NE 9 17 5 9 1024.0 1024.0 0.0
19/09:30am 17.5 15.3 6.4 48 5.5 E 7 13 4 7 1024.3 1024.3 0.0
19/09:00am 16.3 14.5 7.0 54 4.6 E 6 13 3 7 1024.1 1024.1 0.0
19/08:30am 14.8 12.4 7.1 60 3.8 ENE 9 15 5 8 1023.7 1023.6 0.0
19/08:00am 14.3 12.4 7.4 63 3.4 ESE 7 13 4 7 1023.8 1023.7 0.0
19/07:30am 10.6 8.7 6.9 78 1.8 SE 6 7 3 4 1023.7 1023.6 0.0
19/07:00am 10.0 7.4 6.0 76 1.9 SSE 9 11 5 6 1023.6 1023.5 0.0
19/06:30am 10.3 7.6 5.7 73 2.1 SE 9 11 5 6 1023.1 1023.0 0.0
19/06:00am 11.1 8.2 6.3 72 2.3 SSE 11 15 6 8 1023.0 1022.9 0.0
19/05:30am 11.7 9.2 6.4 70 2.5 SE 9 15 5 8 1022.8 1022.7 0.0
19/05:00am 11.7 9.5 6.2 69 2.6 SE 7 9 4 5 1022.9 1022.8 0.0
19/04:30am 11.7 8.4 6.4 70 2.5 SSE 13 15 7 8 1023.1 1023.0 0.0
19/04:00am 11.1 7.7 6.0 71 2.4 SSE 13 15 7 8 1023.0 1022.9 0.0
19/03:30am 9.7 6.4 4.7 71 2.3 SSE 11 13 6 7 1022.9 1022.8 0.0
19/03:00am 9.3 6.3 4.3 71 2.2 SE 9 11 5 6 1023.0 1022.9 0.0
19/02:30am 12.2 10.6 4.4 59 3.6 E 2 7 1 4 1023.1 1023.0 0.0
19/02:00am 15.1 12.3 5.0 51 4.8 E 9 13 5 7 1023.1 1023.0 0.0
19/01:30am 14.4 11.4 4.1 50 4.8 E 9 13 5 7 1023.3 1023.2 0.0
19/01:00am 16.6 13.6 4.3 44 5.8 ENE 9 13 5 7 1023.4 1023.3 0.0
19/12:30am 17.5 14.6 4.5 42 6.2 NE 9 17 5 9 1023.5 1023.4 0.0
19/12:00am 17.5 13.9 4.8 43 6.1 ENE 13 17 7 9 1023.5 1023.4 0.0
 
Date/Time
EDT
Temp
°C
App
Temp
°C
Dew
Point
Rel
Hum
%
Delta-T
°C
Wind Press
QNH
hPa
Press
MSL
hPa
Rain
since 9 am
mm
Dir
 
Spd
km/h
Gust
km/h
Spd
kts
Gust
kts
18/11:30pm 17.3 13.7 4.9 44 6.0 ENE 13 17 7 9 1023.7 1023.6 0.0
18/11:00pm 16.8 13.3 5.4 47 5.5 ENE 13 15 7 8 1023.8 1023.7 0.0
18/10:30pm 15.6 12.6 5.8 52 4.8 E 11 13 6 7 1024.2 1024.2 0.0
18/10:00pm 14.7 12.3 5.2 53 4.5 E 7 9 4 5 1024.6 1024.6 0.0
18/09:30pm 13.8 12.7 4.9 55 4.2 CALM 0 0 0 0 1024.5 1024.5 0.0
18/09:00pm 15.8 14.6 4.5 47 5.3 CALM 0 0 0 0 1024.3 1024.3 0.0
18/08:30pm 17.1 15.0 4.1 42 6.2 E 4 6 2 3 1023.9 1023.9 0.0
18/08:00pm 21.1 18.6 3.8 32 8.4 NNE 6 7 3 4 1023.6 1023.5 0.0
18/07:30pm 22.0 18.7 2.7 28 9.2 NNE 9 15 5 8 1023.2 1023.1 0.0
18/07:00pm 23.3 19.6 2.2 25 10.0 NNE 11 17 6 9 1022.9 1022.8 0.0
18/06:30pm 23.8 18.4 1.4 23 10.6 N 19 26 10 14 1022.4 1022.3 0.0
18/06:00pm 24.7 19.5 0.3 20 11.3 N 17 20 9 11 1022.6 1022.5 0.0
18/05:30pm 24.6 19.5 -2.0 17 11.9 NNE 15 22 8 12 1022.6 1022.5 0.0
18/05:00pm 24.8 19.1 -1.1 18 11.7 NNE 19 30 10 16 1022.5 1022.4 0.0
18/04:30pm 24.5 19.6 -0.6 19 11.5 N 15 26 8 14 1022.7 1022.6 0.0
18/04:00pm 24.5 19.5 1.4 22 10.9 NNE 17 26 9 14 1022.7 1022.6 0.0
18/03:30pm 24.1 18.8 1.7 23 10.7 NE 19 28 10 15 1023.0 1022.9 0.0
18/03:00pm 23.5 18.2 2.9 26 10.0 NE 20 30 11 16 1023.5 1023.4 0.0
18/02:30pm 23.5 18.4 4.0 28 9.7 NNE 20 28 11 15 1024.2 1024.2 0.0
18/02:00pm 23.2 17.3 3.7 28 9.5 NNE 24 39 13 21 1024.8 1024.8 0.0
18/01:30pm 22.5 18.5 5.0 32 8.8 N 15 22 8 12 1025.1 1025.1 0.0
18/01:00pm 22.2 18.9 4.7 32 8.7 NNE 11 24 6 13 1025.4 1025.4 0.0
18/12:30pm 21.5 17.4 4.1 32 8.5 NNE 15 20 8 11 1026.1 1026.1 0.0
18/12:00pm 20.8 17.9 4.8 35 7.9 N 9 20 5 11 1026.6 1026.6 0.0
18/11:30am 19.9 16.0 3.2 33 7.9 NE 13 20 7 11 1026.7 1026.7 0.0
18/11:00am 18.7 15.3 5.9 43 6.3 ENE 13 19 7 10 1026.7 1026.7 0.0
18/10:30am 18.7 15.9 6.9 46 6.0 ENE 11 19 6 10 1027.0 1026.9 0.0
18/10:00am 16.9 14.2 5.5 47 5.5 ENE 9 15 5 8 1027.3 1027.2 0.0
18/09:30am 15.0 11.8 5.2 52 4.7 E 11 17 6 9 1027.4 1027.3 0.0
18/09:00am 13.9 11.1 5.3 56 4.1 E 9 13 5 7 1027.4 1027.3 0.0
18/08:30am 12.6 9.5 5.5 62 3.3 ESE 11 17 6 9 1027.2 1027.1 0.0
18/08:00am 11.9 9.2 5.5 65 3.0 SE 9 13 5 7 1027.0 1026.9 0.0
18/07:30am 9.2 5.8 5.8 79 1.6 SSE 13 17 7 9 1026.8 1026.8 0.0
18/07:00am 5.3 2.5 3.0 85 1.0 SE 7 7 4 4 1026.2 1026.2 0.0
18/06:30am 5.3 2.7 3.2 86 0.9 S 6 9 3 5 1025.7 1025.7 0.0
18/06:00am 5.3 3.5 3.3 87 0.8 SE 2 6 1 3 1025.3 1025.3 0.0
18/05:30am 6.3 4.7 2.6 77 1.5 CALM 0 6 0 3 1025.1 1025.1 0.0
18/05:00am 7.4 4.0 4.0 79 1.5 SE 11 15 6 8 1024.8 1024.8 0.0
18/04:30am 7.1 3.7 3.9 80 1.4 SSE 11 15 6 8 1024.6 1024.6 0.0
18/04:00am 6.9 3.8 3.5 79 1.4 SE 9 11 5 6 1024.3 1024.3 0.0
18/03:30am 7.4 4.3 3.6 77 1.6 SSE 9 13 5 7 1024.4 1024.4 0.0
18/03:00am 7.2 3.8 4.0 80 1.4 SSE 11 17 6 9 1024.7 1024.7 0.0
18/02:30am 7.1 4.0 3.7 79 1.5 SSE 9 13 5 7 1024.7 1024.7 0.0
18/02:00am 7.9 4.9 4.1 77 1.7 SE 9 13 5 7 1024.6 1024.6 0.0
18/01:30am 7.8 4.0 4.0 77 1.7 SSE 13 17 7 9 1025.1 1025.1 0.0
18/01:00am 8.5 4.7 4.1 74 1.9 SE 13 17 7 9 1025.5 1025.5 0.0
18/12:30am 9.2 6.1 3.4 67 2.5 SSE 9 11 5 6 1025.9 1025.9 0.0
18/12:00am 9.2 5.6 3.2 66 2.6 SSE 11 13 6 7 1025.7 1025.7 0.0
 
Date/Time
EDT
Temp
°C
App
Temp
°C
Dew
Point
Rel
Hum
%
Delta-T
°C
Wind Press
QNH
hPa
Press
MSL
hPa
Rain
since 9 am
mm
Dir
 
Spd
km/h
Gust
km/h
Spd
kts
Gust
kts
17/11:30pm 9.5 6.3 3.0 64 2.8 SSE 9 11 5 6 1025.7 1025.7 0.0
17/11:00pm 8.9 6.0 2.5 64 2.7 SSE 7 9 4 5 1025.6 1025.6 0.0
17/10:30pm 8.9 5.6 2.3 63 2.8 SSE 9 9 5 5 1025.5 1025.5 0.0
17/10:00pm 10.1 7.9 3.2 62 3.0 ESE 4 15 2 8 1025.9 1025.9 0.0
17/09:30pm 9.4 7.8 2.5 62 3.0 CALM 0 0 0 0 1025.5 1025.5 0.0
17/09:00pm 9.6 8.0 2.5 61 3.0 CALM 0 4 0 2 1025.3 1025.3 0.0
17/08:30pm 11.0 9.4 2.6 56 3.7 CALM 0 0 0 0 1024.8 1024.8 0.0
17/08:00pm 12.7 11.2 3.1 52 4.3 CALM 0 0 0 0 1024.4 1024.4 0.0
17/07:30pm 17.2 13.8 1.6 35 7.0 E 9 11 5 6 1024.2 1024.2 0.0
17/07:00pm 18.4 15.1 2.3 34 7.4 SE 9 13 5 7 1024.0 1024.0 0.0
17/06:30pm 19.3 16.3 2.2 32 7.9 ESE 7 13 4 7 1023.6 1023.5 0.0
17/06:00pm 19.3 16.4 1.3 30 8.2 SSE 6 15 3 8 1023.6 1023.5 0.0
17/05:30pm 19.7 16.7 2.1 31 8.2 ESE 7 22 4 12 1023.4 1023.3 0.0
17/05:00pm 19.9 17.1 1.8 30 8.3 NNW 6 11 3 6 1023.5 1023.4 0.0
17/04:30pm 19.7 17.1 1.2 29 8.4 SSW 4 13 2 7 1023.7 1023.6 0.0
17/04:00pm 19.4 16.4 2.3 32 7.9 ENE 7 13 4 7 1023.9 1023.9 0.0
17/03:30pm 19.4 16.5 2.7 33 7.8 E 7 11 4 6 1024.3 1024.3 0.0

Other Formats:

Comma delimited format used in spreadsheet applications
http://www.bom.gov.au/fwo/IDV60801/IDV60801.94855.axf

JavaScript Object Notation format (JSON) in row-major order
http://www.bom.gov.au/fwo/IDV60801/IDV60801.94855.json